Time;durP1;ratioP1;P1;durP2;ratioP2;P2;SDS_P1;SDS_P2;PMS_P1;PMS_P2;Temp;Humidity;BMP_temperature;BMP_pressure;BME280_temperature;BME280_humidity;BME280_pressure;Samples;Min_cycle;Max_cycle;Signal;HPM_P1;HPM_P2
2022/09/30 00:00:50;;;;;;;17.90;14.20;;;5.60;99.90;4.90;99676;;;;576781;247;24102;-82
2022/09/30 00:03:22;;;;;;;15.43;13.60;;;5.70;99.90;4.90;99678;;;;576215;247;24124;-83
2022/09/30 00:05:48;;;;;;;16.90;13.80;;;5.60;99.90;4.90;99688;;;;575803;249;24090;-81
2022/09/30 00:08:16;;;;;;;15.87;13.90;;;5.60;99.90;4.90;99686;;;;575719;249;24093;-82
2022/09/30 00:10:44;;;;;;;16.47;13.93;;;5.70;99.90;4.80;99684;;;;576390;247;24106;-82
2022/09/30 00:13:12;;;;;;;15.87;13.23;;;5.60;99.90;4.80;99681;;;;575937;247;24128;-82
2022/09/30 00:15:40;;;;;;;15.37;13.67;;;5.60;99.90;4.80;99686;;;;575749;248;24106;-82
2022/09/30 00:18:07;;;;;;;17.67;13.77;;;5.60;99.90;4.80;99689;;;;576857;247;24093;-83
2022/09/30 00:20:35;;;;;;;16.07;13.80;;;5.60;99.90;4.90;99688;;;;576106;247;24148;-82
2022/09/30 00:23:03;;;;;;;15.80;13.63;;;5.60;99.90;4.90;99696;;;;576102;247;24153;-83
2022/09/30 00:25:31;;;;;;;16.60;13.53;;;5.60;99.90;4.90;99690;;;;575659;247;24111;-83
2022/09/30 00:28:00;;;;;;;14.83;13.10;;;5.60;99.90;4.80;99680;;;;576012;247;24096;-82
2022/09/30 00:30:30;;;;;;;14.77;12.33;;;5.60;99.90;4.80;99690;;;;575774;247;24106;-83
2022/09/30 00:33:00;;;;;;;15.07;13.47;;;5.60;99.90;4.80;99686;;;;575786;247;24102;-83
2022/09/30 00:35:31;;;;;;;15.97;13.17;;;5.50;99.90;4.70;99695;;;;576201;248;24113;-83
2022/09/30 00:37:56;;;;;;;15.90;14.20;;;5.50;99.90;4.70;99692;;;;575773;250;24122;-83
2022/09/30 00:40:23;;;;;;;19.87;14.07;;;5.50;99.90;4.70;99694;;;;576156;247;24136;-82
2022/09/30 00:42:51;;;;;;;18.70;14.60;;;5.50;99.90;4.70;99700;;;;576073;247;24125;-83
2022/09/30 00:45:22;;;;;;;17.83;13.57;;;5.50;99.90;4.80;99696;;;;576103;247;24103;-82
2022/09/30 00:48:07;;;;;;;16.53;13.57;;;5.50;99.90;4.80;99709;;;;576597;247;24103;-82
2022/09/30 00:50:37;;;;;;;17.37;14.37;;;5.50;99.90;4.70;99704;;;;576471;244;24106;-82
2022/09/30 00:53:11;;;;;;;16.83;15.03;;;5.50;99.90;4.70;99711;;;;576456;249;24093;-82
2022/09/30 00:55:47;;;;;;;15.83;13.60;;;5.50;99.90;4.70;99701;;;;576783;247;24122;-82
2022/09/30 00:58:19;;;;;;;17.00;14.07;;;5.50;99.90;4.60;99693;;;;576605;247;24110;-82
2022/09/30 01:00:50;;;;;;;14.77;13.27;;;5.40;99.90;4.60;99699;;;;575639;249;25160;-82
2022/09/30 01:03:21;;;;;;;16.93;13.47;;;5.40;99.90;4.60;99704;;;;576656;247;24116;-83
2022/09/30 01:05:48;;;;;;;16.47;14.07;;;5.40;99.90;4.50;99707;;;;576285;247;24106;-83
2022/09/30 01:08:17;;;;;;;15.97;13.20;;;5.30;99.90;4.50;99711;;;;583476;243;24138;-82
2022/09/30 01:10:53;;;;;;;16.50;12.93;;;5.30;99.90;4.50;99719;;;;572758;251;24141;-83
2022/09/30 01:13:27;;;;;;;16.33;14.17;;;5.30;99.90;4.40;99714;;;;576275;248;24102;-83
2022/09/30 01:16:20;;;;;;;18.50;15.27;;;5.20;99.90;4.40;99727;;;;575727;249;24091;-80
2022/09/30 01:19:09;;;;;;;16.37;14.27;;;5.20;99.90;4.40;99740;;;;581051;246;24113;-82
2022/09/30 01:21:55;;;;;;;17.90;14.50;;;5.20;99.90;4.40;99731;;;;572050;251;24139;-83
2022/09/30 01:24:50;;;;;;;19.47;15.47;;;5.20;99.90;4.40;99734;;;;583403;246;24144;-82
2022/09/30 01:27:30;;;;;;;17.40;15.00;;;5.20;99.90;4.40;99743;;;;582694;246;24091;-82
2022/09/30 01:30:12;;;;;;;24.00;16.00;;;5.20;99.90;4.40;99750;;;;581540;246;24112;-83
2022/09/30 01:33:07;;;;;;;17.27;15.33;;;5.20;99.90;4.50;99744;;;;576374;250;24115;-83
2022/09/30 01:36:03;;;;;;;19.00;13.97;;;5.20;99.90;4.40;99742;;;;576361;250;24094;-82
2022/09/30 01:38:30;;;;;;;17.60;14.83;;;5.20;99.90;4.40;99734;;;;576231;250;24093;-81
2022/09/30 01:41:12;;;;;;;21.07;15.93;;;5.20;99.90;4.40;99732;;;;581985;242;24209;-82
2022/09/30 01:43:44;;;;;;;21.53;15.57;;;5.20;99.90;4.40;99733;;;;579364;248;24093;-83
2022/09/30 01:46:23;;;;;;;22.10;15.30;;;5.10;99.90;4.30;99736;;;;584515;246;24122;-83
2022/09/30 01:49:26;;;;;;;26.67;15.27;;;5.10;99.90;4.30;99720;;;;572352;247;24111;-83
2022/09/30 01:52:26;;;;;;;21.40;16.97;;;5.10;99.90;4.40;99730;;;;583578;243;24119;-83
2022/09/30 01:55:25;;;;;;;18.63;16.13;;;5.10;99.90;4.40;99730;;;;576023;250;24157;-83
2022/09/30 01:57:59;;;;;;;21.47;16.30;;;5.20;99.90;4.40;99727;;;;576420;248;24128;-82
2022/09/30 02:00:27;;;;;;;22.23;17.70;;;5.20;99.90;4.50;99728;;;;577459;247;24120;-82
2022/09/30 02:03:28;;;;;;;19.57;16.03;;;5.20;99.90;4.50;99741;;;;577104;247;24109;-83
2022/09/30 02:05:53;;;;;;;19.07;16.43;;;5.30;99.90;4.50;99742;;;;565296;254;24145;-82
2022/09/30 02:08:45;;;;;;;23.57;16.40;;;5.30;99.90;4.50;99741;;;;588861;241;24097;-82
2022/09/30 02:11:16;;;;;;;20.00;15.77;;;5.30;99.90;4.50;99741;;;;593335;241;24083;-81
2022/09/30 02:13:59;;;;;;;20.40;16.10;;;5.30;99.90;4.60;99744;;;;595920;241;24100;-82
2022/09/30 02:16:48;;;;;;;17.30;15.23;;;5.30;99.90;4.60;99743;;;;592324;241;24073;-84
2022/09/30 02:19:21;;;;;;;18.73;15.87;;;5.40;99.90;4.60;99737;;;;595553;241;24102;-83
2022/09/30 02:22:08;;;;;;;17.93;14.83;;;5.40;99.90;4.60;99739;;;;595674;241;24100;-82
2022/09/30 02:24:35;;;;;;;19.93;15.40;;;5.40;99.90;4.70;99733;;;;595529;241;24103;-84
2022/09/30 02:27:04;;;;;;;19.33;16.03;;;5.50;99.90;4.70;99739;;;;584099;243;24098;-82
2022/09/30 02:29:29;;;;;;;20.17;15.57;;;5.50;99.90;4.70;99743;;;;580144;244;24147;-82
2022/09/30 02:31:57;;;;;;;18.30;14.67;;;5.50;99.90;4.70;99735;;;;573639;248;24154;-82
2022/09/30 02:34:33;;;;;;;19.70;14.77;;;5.50;99.90;4.70;99741;;;;583832;242;24119;-81
2022/09/30 02:37:26;;;;;;;18.70;15.23;;;5.50;99.90;4.70;99741;;;;583792;242;24117;-81
2022/09/30 02:40:09;;;;;;;22.37;15.67;;;5.50;99.90;4.80;99749;;;;571387;250;24102;-83
2022/09/30 02:42:40;;;;;;;20.37;15.07;;;5.60;99.90;4.80;99744;;;;576838;244;24136;-83
2022/09/30 02:45:10;;;;;;;20.37;14.73;;;5.60;99.90;4.90;99745;;;;576356;250;24109;-83
2022/09/30 02:47:58;;;;;;;18.33;14.03;;;5.60;99.90;4.90;99754;;;;576427;248;24130;-80
2022/09/30 02:50:44;;;;;;;18.90;15.20;;;5.70;99.90;4.90;99750;;;;576576;244;24094;-84
2022/09/30 02:53:18;;;;;;;24.40;14.57;;;5.70;99.90;4.90;99757;;;;576704;250;24094;-82
2022/09/30 02:56:03;;;;;;;17.27;14.10;;;5.70;99.90;4.90;99758;;;;574796;250;24131;-83
2022/09/30 02:58:36;;;;;;;22.20;14.80;;;5.70;99.90;4.90;99757;;;;582795;246;24104;-82
2022/09/30 03:01:00;;;;;;;16.70;14.20;;;5.70;99.90;4.90;99765;;;;572324;251;24111;-83
2022/09/30 03:03:40;;;;;;;18.37;14.20;;;5.70;99.90;4.90;99771;;;;572079;251;24160;-83
2022/09/30 03:06:11;;;;;;;19.83;14.47;;;5.60;99.90;4.80;99765;;;;571471;252;24145;-83
2022/09/30 03:08:36;;;;;;;17.40;13.13;;;5.60;99.90;4.80;99766;;;;571116;252;24129;-83
2022/09/30 03:11:04;;;;;;;19.27;14.70;;;5.60;99.90;4.80;99765;;;;571515;250;24114;-82
2022/09/30 03:13:56;;;;;;;19.10;14.67;;;5.60;99.90;4.80;99764;;;;574095;246;24147;-79
2022/09/30 03:16:36;;;;;;;19.57;15.93;;;5.60;99.90;4.80;99762;;;;573452;251;24147;-83
2022/09/30 03:19:30;;;;;;;21.90;15.73;;;5.60;99.90;4.80;99760;;;;573462;251;24140;-82
2022/09/30 03:22:50;;;;;;;19.70;15.03;;;5.60;99.90;4.70;99773;;;;576927;248;24109;-83
2022/09/30 03:25:48;;;;;;;19.93;16.57;;;5.50;99.90;4.70;99771;;;;576735;244;24125;-80
2022/09/30 03:28:27;;;;;;;18.30;15.40;;;5.50;99.90;4.70;99785;;;;577105;247;24109;-82
2022/09/30 03:31:12;;;;;;;20.93;16.20;;;5.40;99.90;4.60;99781;;;;576669;244;24110;-81
2022/09/30 03:34:01;;;;;;;24.17;15.80;;;5.40;99.90;4.60;99790;;;;576265;247;24120;-81
2022/09/30 03:36:41;;;;;;;20.53;16.10;;;5.40;99.90;4.60;99792;;;;582982;245;24128;-80
2022/09/30 03:39:23;;;;;;;20.30;16.80;;;5.40;99.90;4.70;99795;;;;583104;246;24128;-81
2022/09/30 03:42:18;;;;;;;24.33;17.10;;;5.40;99.90;4.70;99784;;;;572425;249;24157;-84
2022/09/30 03:45:04;;;;;;;20.37;16.37;;;5.40;99.90;4.70;99784;;;;572050;250;24151;-81
2022/09/30 03:47:32;;;;;;;21.33;16.97;;;5.40;99.90;4.70;99789;;;;571916;251;24121;-82
2022/09/30 03:50:00;;;;;;;22.83;16.97;;;5.40;99.90;4.70;99779;;;;583667;237;24101;-82
2022/09/30 03:52:28;;;;;;;23.33;16.83;;;5.50;99.90;4.70;99786;;;;595697;241;24085;-81
2022/09/30 03:54:57;;;;;;;22.27;17.33;;;5.50;99.90;4.70;99787;;;;595638;242;24089;-81
2022/09/30 03:57:30;;;;;;;21.00;16.20;;;5.50;99.90;4.70;99785;;;;595766;241;24103;-81
2022/09/30 04:00:03;;;;;;;19.80;15.70;;;5.50;99.90;4.70;99791;;;;595304;238;24085;-82
2022/09/30 04:02:28;;;;;;;24.73;16.03;;;5.50;99.90;4.70;99796;;;;595134;242;24088;-82
2022/09/30 04:04:56;;;;;;;24.07;16.53;;;5.50;99.90;4.70;99793;;;;595874;242;24108;-82
2022/09/30 04:07:25;;;;;;;22.17;17.27;;;5.50;99.90;4.70;99797;;;;595807;237;24112;-81
2022/09/30 04:09:53;;;;;;;22.63;17.00;;;5.50;99.90;4.70;99804;;;;595457;241;24109;-82
2022/09/30 04:12:21;;;;;;;24.30;17.40;;;5.50;99.90;4.70;99812;;;;595498;241;24119;-82
2022/09/30 04:14:51;;;;;;;22.33;16.17;;;5.50;99.90;4.60;99809;;;;595329;241;24103;-82
2022/09/30 04:17:19;;;;;;;25.13;16.90;;;5.40;99.90;4.70;99812;;;;595095;237;24117;-83
2022/09/30 04:19:45;;;;;;;20.90;16.20;;;5.40;99.90;4.70;99827;;;;594630;237;24093;-83
2022/09/30 04:22:16;;;;;;;22.27;16.43;;;5.40;99.90;4.70;99829;;;;596121;239;24075;-82
2022/09/30 04:24:44;;;;;;;24.07;17.77;;;5.50;99.90;4.70;99833;;;;595256;241;24093;-82
2022/09/30 04:27:12;;;;;;;21.80;18.70;;;5.50;99.90;4.70;99838;;;;595554;237;24103;-82
2022/09/30 04:29:37;;;;;;;22.93;16.13;;;5.50;99.90;4.70;99835;;;;595368;237;24068;-82
2022/09/30 04:32:04;;;;;;;22.10;16.43;;;5.50;99.90;4.70;99840;;;;583541;246;24097;-81
2022/09/30 04:34:36;;;;;;;22.63;15.63;;;5.50;99.90;4.70;99840;;;;573518;249;24107;-81
2022/09/30 04:37:00;;;;;;;23.97;15.50;;;5.50;99.90;4.70;99845;;;;573036;248;24158;-82
2022/09/30 04:39:28;;;;;;;21.27;15.80;;;5.50;99.90;4.70;99847;;;;577730;248;24105;-82
2022/09/30 04:41:56;;;;;;;23.83;16.43;;;5.40;99.90;4.70;99844;;;;577132;247;24098;-83
2022/09/30 04:44:24;;;;;;;21.60;16.87;;;5.40;99.90;4.70;99847;;;;576253;247;24117;-83
2022/09/30 04:46:52;;;;;;;23.37;16.20;;;5.50;99.90;4.70;99848;;;;576947;247;24109;-83
2022/09/30 04:49:22;;;;;;;20.87;16.70;;;5.50;99.90;4.70;99850;;;;567470;249;25253;-83
2022/09/30 04:51:48;;;;;;;22.67;17.00;;;5.50;99.90;4.60;99844;;;;576219;249;24092;-83
2022/09/30 04:54:15;;;;;;;22.67;16.63;;;5.50;99.90;4.70;99849;;;;566656;249;24078;-83
2022/09/30 04:56:44;;;;;;;19.57;15.47;;;5.50;99.90;4.70;99862;;;;566442;249;24089;-82
2022/09/30 04:59:13;;;;;;;27.43;16.93;;;5.60;99.90;4.80;99854;;;;566553;250;24082;-82
2022/09/30 05:01:44;;;;;;;24.30;19.90;;;5.60;99.90;4.90;99860;;;;566567;250;24085;-82
2022/09/30 05:04:12;;;;;;;25.97;18.83;;;5.60;99.90;5.00;99863;;;;574886;250;24113;-82
2022/09/30 05:06:39;;;;;;;25.43;16.60;;;5.70;99.90;5.00;99858;;;;576010;247;24097;-83
2022/09/30 05:09:04;;;;;;;19.77;13.40;;;5.80;99.90;5.10;99855;;;;574976;250;24110;-82
2022/09/30 05:11:32;;;;;;;17.00;12.13;;;5.80;99.90;5.20;99867;;;;566735;250;24133;-82
2022/09/30 05:14:00;;;;;;;18.03;12.03;;;5.90;99.90;5.20;99870;;;;566334;249;24140;-82
2022/09/30 05:16:28;;;;;;;20.73;11.57;;;6.00;99.90;5.30;99856;;;;566980;250;24096;-82
2022/09/30 05:18:56;;;;;;;21.37;12.23;;;6.00;99.90;5.40;99871;;;;567012;250;24146;-82
2022/09/30 05:21:27;;;;;;;20.07;12.27;;;6.10;99.90;5.40;99857;;;;567034;250;24083;-81
2022/09/30 05:23:52;;;;;;;19.30;12.50;;;6.20;99.90;5.50;99864;;;;566319;250;24175;-83
2022/09/30 05:26:20;;;;;;;18.60;11.90;;;6.30;99.90;5.60;99858;;;;572913;246;24142;-82
2022/09/30 05:28:48;;;;;;;18.77;12.40;;;6.40;99.90;5.70;99865;;;;581851;246;24090;-83
2022/09/30 05:31:16;;;;;;;18.17;11.83;;;6.40;99.90;5.80;99857;;;;566484;250;24101;-84
2022/09/30 05:33:44;;;;;;;17.53;13.63;;;6.50;99.90;5.90;99858;;;;567630;249;24186;-82
2022/09/30 05:36:11;;;;;;;18.20;11.83;;;6.60;99.90;6.00;99860;;;;567524;249;24084;-82
2022/09/30 05:38:43;;;;;;;18.37;12.77;;;6.80;99.90;6.10;99865;;;;567097;249;24094;-83
2022/09/30 05:41:11;;;;;;;20.70;12.20;;;6.80;99.90;6.20;99873;;;;566848;249;24119;-82
2022/09/30 05:43:42;;;;;;;19.77;13.03;;;6.90;99.90;6.30;99879;;;;573378;246;24146;-83
2022/09/30 05:46:11;;;;;;;18.17;11.97;;;7.00;99.90;6.40;99881;;;;567892;251;24102;-83
2022/09/30 05:48:38;;;;;;;22.53;12.27;;;7.10;99.90;6.50;99879;;;;578089;248;24191;-82
2022/09/30 05:51:06;;;;;;;23.40;14.80;;;7.20;99.90;6.60;99892;;;;573091;242;24094;-83
2022/09/30 05:53:33;;;;;;;25.40;15.87;;;7.40;99.90;6.80;99893;;;;578136;248;24147;-83
2022/09/30 05:56:01;;;;;;;20.73;12.93;;;7.50;99.90;7.00;99893;;;;562825;251;24122;-83
2022/09/30 05:58:34;;;;;;;23.17;10.53;;;7.70;99.90;7.20;99898;;;;588820;243;24127;-83
2022/09/30 06:00:58;;;;;;;16.13;9.57;;;7.90;99.90;7.50;99903;;;;565968;249;24133;-84
2022/09/30 06:03:26;;;;;;;18.43;11.40;;;8.10;99.90;7.90;99916;;;;565579;249;24100;-83
2022/09/30 06:06:00;;;;;;;16.07;11.17;;;8.50;99.90;8.50;99916;;;;565973;249;24103;-84
2022/09/30 06:08:26;;;;;;;17.73;12.23;;;9.50;99.90;8.90;99922;;;;568546;249;24091;-84
2022/09/30 06:10:54;;;;;;;18.07;12.13;;;9.40;99.90;9.20;99930;;;;565763;250;24102;-84
2022/09/30 06:13:22;;;;;;;19.53;16.03;;;9.80;99.90;9.40;99935;;;;560654;250;46211;-85
2022/09/30 06:15:58;;;;;;;21.93;13.20;;;10.10;99.90;9.60;99947;;;;565754;250;24078;-85
2022/09/30 06:18:26;;;;;;;20.87;11.67;;;10.30;99.90;9.70;99935;;;;565612;250;24164;-85
2022/09/30 06:20:57;;;;;;;23.80;11.70;;;10.40;99.90;10.00;99934;;;;565575;250;24079;-83
2022/09/30 06:23:26;;;;;;;17.13;11.30;;;10.90;99.90;10.10;99939;;;;565640;250;24103;-85
2022/09/30 06:25:54;;;;;;;14.10;10.60;;;10.90;99.90;10.40;99949;;;;566095;250;24104;-83
2022/09/30 06:28:22;;;;;;;16.20;10.77;;;11.10;99.90;10.90;99950;;;;566206;249;24117;-84
2022/09/30 06:30:50;;;;;;;22.57;11.47;;;11.50;99.90;12.10;99954;;;;566077;250;24079;-84
2022/09/30 06:33:18;;;;;;;17.83;11.77;;;12.60;99.90;13.30;99959;;;;566151;250;24095;-84
2022/09/30 06:35:46;;;;;;;17.57;11.33;;;13.60;99.90;15.30;99968;;;;566069;250;24066;-85
2022/09/30 06:38:17;;;;;;;21.40;9.23;;;17.60;99.90;17.70;99975;;;;565933;250;24154;-84
2022/09/30 06:40:49;;;;;;;12.37;7.70;;;19.80;99.90;19.80;99986;;;;566034;250;25135;-82
2022/09/30 06:43:16;;;;;;;11.97;7.00;;;19.70;99.90;21.60;99980;;;;566085;250;24129;-83
2022/09/30 06:45:50;;;;;;;10.57;6.33;;;21.60;99.90;23.30;99986;;;;571655;249;24233;-84
2022/09/30 06:48:15;;;;;;;12.17;6.30;;;23.30;99.90;24.70;99978;;;;566964;247;24096;-84
2022/09/30 06:50:47;;;;;;;6.90;6.20;;;24.80;96.10;26.20;99984;;;;566928;249;24063;-83
2022/09/30 06:53:11;;;;;;;7.50;6.03;;;26.10;86.90;27.10;99984;;;;566646;249;24093;-83
2022/09/30 06:55:40;;;;;;;7.23;6.43;;;28.10;72.00;28.00;99986;;;;566297;249;23108;-83
2022/09/30 06:58:10;;;;;;;11.33;7.13;;;28.80;68.10;28.60;99987;;;;566043;249;24139;-83
2022/09/30 07:00:36;;;;;;;9.00;6.50;;;28.80;68.10;29.40;99995;;;;566146;249;24129;-83
2022/09/30 07:03:08;;;;;;;9.50;5.77;;;29.60;62.30;29.90;99988;;;;566365;249;24160;-82
2022/09/30 07:05:32;;;;;;;7.80;5.53;;;30.20;59.80;30.30;99998;;;;566213;249;23148;-83
2022/09/30 07:08:03;;;;;;;5.90;5.47;;;30.60;56.30;29.30;100000;;;;566372;249;23182;-84
2022/09/30 07:10:28;;;;;;;6.83;6.27;;;30.20;54.90;27.50;100003;;;;565939;248;23113;-82
2022/09/30 07:12:58;;;;;;;6.20;5.60;;;28.10;58.10;27.10;100004;;;;572970;246;23097;-82
2022/09/30 07:15:25;;;;;;;6.77;5.83;;;28.10;58.10;26.70;100011;;;;562664;251;23067;-82
2022/09/30 07:17:55;;;;;;;6.27;5.67;;;27.50;58.40;25.80;100020;;;;572826;246;24166;-83
2022/09/30 07:20:20;;;;;;;7.67;6.57;;;26.70;59.40;24.70;100013;;;;562151;251;23139;-83
2022/09/30 07:22:48;;;;;;;7.70;6.23;;;25.80;60.90;23.90;100018;;;;566740;250;24119;-83
2022/09/30 07:25:16;;;;;;;6.57;5.97;;;24.90;62.90;23.70;100018;;;;573385;246;23110;-84
2022/09/30 07:27:45;;;;;;;8.17;6.63;;;24.50;65.00;23.40;100015;;;;562965;251;24056;-83
2022/09/30 07:30:13;;;;;;;6.57;6.07;;;23.70;66.00;23.10;100033;;;;569210;251;24128;-83
2022/09/30 07:32:44;;;;;;;6.27;5.67;;;23.70;65.90;22.80;100039;;;;572907;246;24088;-83
2022/09/30 07:35:09;;;;;;;6.53;5.93;;;23.40;66.90;23.00;100034;;;;561593;251;24165;-83
2022/09/30 07:37:37;;;;;;;6.03;5.53;;;23.40;67.10;23.00;100045;;;;575292;248;24087;-83
2022/09/30 07:40:04;;;;;;;6.40;5.67;;;23.40;67.60;23.30;100045;;;;573124;246;24122;-83
2022/09/30 07:42:32;;;;;;;5.67;5.17;;;23.50;67.10;23.40;100049;;;;562404;251;24069;-83
2022/09/30 07:45:00;;;;;;;7.33;5.90;;;23.70;66.40;23.50;100059;;;;572815;246;24077;-83
2022/09/30 07:47:28;;;;;;;8.03;5.47;;;23.80;66.10;23.40;100058;;;;573123;246;24071;-83
2022/09/30 07:49:56;;;;;;;7.73;5.80;;;23.80;66.40;24.10;100061;;;;589016;243;24071;-83
2022/09/30 07:52:24;;;;;;;13.10;5.73;;;24.20;66.90;25.40;100074;;;;566565;250;24101;-83
2022/09/30 07:54:52;;;;;;;6.40;4.97;;;25.30;64.70;26.80;100076;;;;566534;250;24149;-81
2022/09/30 07:57:20;;;;;;;5.67;5.17;;;26.80;61.50;28.40;100084;;;;573765;246;23097;-82
2022/09/30 07:59:49;;;;;;;6.63;6.23;;;29.80;56.20;29.70;100077;;;;563404;250;23098;-83
2022/09/30 08:02:17;;;;;;;9.13;7.90;;;29.70;56.20;31.10;100087;;;;579736;246;23131;-83
2022/09/30 08:04:47;;;;;;;8.68;7.82;;;31.20;53.50;31.90;100087;;;;582047;246;23125;-83
2022/09/30 08:07:12;;;;;;;6.97;6.47;;;32.30;52.00;32.50;100091;;;;577647;248;24155;-83
2022/09/30 08:09:40;;;;;;;6.30;5.80;;;33.10;50.30;33.40;100101;;;;571522;251;23127;-85
2022/09/30 08:12:12;;;;;;;5.35;5.05;;;33.90;48.30;34.20;100095;;;;566737;249;23102;-83
2022/09/30 08:14:36;;;;;;;5.90;5.35;;;34.60;46.90;34.70;100104;;;;566412;249;23130;-84
2022/09/30 08:17:05;;;;;;;5.30;5.00;;;35.20;45.60;35.00;100100;;;;573436;246;23133;-84
2022/09/30 08:19:37;;;;;;;6.20;5.65;;;36.00;44.50;35.40;100107;;;;562828;251;23136;-84
2022/09/30 08:22:02;;;;;;;6.15;5.55;;;36.40;43.20;35.70;100108;;;;568449;246;35357;-84
2022/09/30 08:24:29;;;;;;;5.55;5.15;;;36.40;43.20;35.90;100103;;;;582132;243;23095;-84
2022/09/30 08:26:57;;;;;;;5.50;5.03;;;36.70;43.10;36.60;100110;;;;567075;249;23100;-83
2022/09/30 08:29:25;;;;;;;5.93;5.43;;;37.30;42.00;37.00;100120;;;;573788;246;23085;-84
2022/09/30 08:31:53;;;;;;;6.10;5.50;;;37.80;41.20;37.40;100119;;;;562935;250;23089;-84
2022/09/30 08:34:21;;;;;;;5.87;5.20;;;38.10;40.40;37.70;100113;;;;579652;246;23099;-84
2022/09/30 08:36:49;;;;;;;6.60;5.03;;;38.50;40.00;37.90;100125;;;;573370;246;23125;-84
2022/09/30 08:39:18;;;;;;;5.37;4.87;;;39.10;39.10;38.00;100128;;;;588999;243;23091;-84
2022/09/30 08:41:54;;;;;;;5.32;4.93;;;39.00;39.00;38.20;100131;;;;566727;250;24144;-84
2022/09/30 08:44:31;;;;;;;7.25;4.15;;;39.30;38.70;38.50;100140;;;;573076;246;23094;-83
2022/09/30 08:47:10;;;;;;;4.10;3.90;;;39.60;37.80;38.60;100139;;;;564007;251;23156;-84
2022/09/30 08:49:44;;;;;;;3.90;3.65;;;39.80;37.30;39.00;100144;;;;580497;242;23114;-84
2022/09/30 08:52:08;;;;;;;5.30;3.67;;;40.20;37.10;39.20;100146;;;;555491;251;23156;-83
2022/09/30 08:54:36;;;;;;;3.95;3.65;;;40.40;36.50;39.20;100144;;;;575645;249;23188;-84
2022/09/30 08:57:07;;;;;;;4.55;3.12;;;40.50;36.50;39.30;100156;;;;563004;250;23174;-82
2022/09/30 08:59:32;;;;;;;3.28;2.97;;;40.70;36.10;39.40;100155;;;;565758;250;23111;-83
2022/09/30 09:02:12;;;;;;;3.05;2.85;;;40.90;35.40;39.40;100151;;;;565556;249;24143;-84
2022/09/30 09:04:40;;;;;;;2.60;2.45;;;40.90;35.40;39.60;100154;;;;571520;246;23119;-84
2022/09/30 09:07:09;;;;;;;2.40;2.30;;;41.00;34.90;39.60;100155;;;;561903;249;23092;-84
2022/09/30 09:09:55;;;;;;;2.62;2.53;;;40.90;34.60;39.10;100156;;;;563178;250;24147;-83
2022/09/30 09:13:01;;;;;;;6.68;2.83;;;40.80;34.50;39.00;100156;;;;566714;249;23134;-83
2022/09/30 09:16:01;;;;;;;2.50;2.30;;;40.60;34.80;38.90;100160;;;;572485;246;23084;-81
2022/09/30 09:18:52;;;;;;;3.42;2.20;;;39.60;34.60;37.60;100147;;;;570563;251;23086;-83
2022/09/30 09:21:40;;;;;;;1.90;1.80;;;39.50;34.50;35.30;100160;;;;568914;251;23161;-84
2022/09/30 09:24:10;;;;;;;2.20;2.10;;;37.90;35.10;33.30;100158;;;;573153;246;23102;-82
2022/09/30 09:26:38;;;;;;;2.25;2.12;;;35.80;36.70;32.20;100151;;;;572313;246;23107;-81
2022/09/30 09:29:30;;;;;;;2.28;2.15;;;33.30;40.30;31.50;100146;;;;572583;246;23104;-82
2022/09/30 09:32:00;;;;;;;2.15;2.05;;;33.20;40.30;30.80;100153;;;;560657;247;23026;-82
2022/09/30 09:34:27;;;;;;;2.22;2.12;;;32.20;41.70;30.80;100155;;;;572377;246;23128;-82
2022/09/30 09:37:07;;;;;;;2.60;2.42;;;32.20;41.60;31.00;100155;;;;572491;246;23117;-82
2022/09/30 09:39:49;;;;;;;2.78;2.20;;;32.50;41.70;30.40;100155;;;;565673;246;23129;-82
2022/09/30 09:42:35;;;;;;;2.78;2.60;;;32.10;41.20;30.70;100152;;;;572017;246;23094;-82
2022/09/30 09:45:00;;;;;;;5.53;2.75;;;32.10;41.90;30.80;100156;;;;561937;251;23034;-82
2022/09/30 09:47:28;;;;;;;6.30;2.65;;;32.30;41.80;31.20;100157;;;;570657;246;23108;-82
2022/09/30 09:49:59;;;;;;;2.78;2.58;;;32.70;41.70;31.50;100152;;;;572405;246;24346;-83
2022/09/30 09:52:51;;;;;;;2.55;2.42;;;33.20;42.00;32.30;100153;;;;575876;246;35227;-84
2022/09/30 09:55:19;;;;;;;3.97;2.65;;;34.00;41.00;32.50;100162;;;;562086;251;23158;-83
2022/09/30 09:57:48;;;;;;;4.85;2.72;;;34.20;39.80;32.70;100151;;;;575105;249;24135;-83
2022/09/30 10:03:23;;;;;;;2.50;2.25;;;34.80;39.60;33.10;100156;;;;565766;250;24154;-83
2022/09/30 10:06:09;;;;;;;2.17;2.08;;;34.80;39.40;32.40;100150;;;;580859;246;23119;-83
2022/09/30 10:08:38;;;;;;;2.20;2.08;;;34.40;39.30;31.30;100147;;;;569855;251;23097;-82
2022/09/30 10:11:06;;;;;;;2.30;2.20;;;32.50;41.10;30.60;100147;;;;568489;246;23212;-82
2022/09/30 10:13:40;;;;;;;2.40;2.22;;;32.10;41.70;30.30;100147;;;;570731;246;23147;-82
2022/09/30 10:16:08;;;;;;;2.28;2.05;;;32.10;41.70;30.30;100146;;;;565794;250;23155;-82
2022/09/30 10:18:38;;;;;;;3.42;1.80;;;31.90;41.50;30.10;100134;;;;571341;246;23196;-81
2022/09/30 10:21:27;;;;;;;1.75;1.65;;;31.50;41.50;29.80;100142;;;;563226;250;23149;-83
2022/09/30 10:23:56;;;;;;;2.30;2.20;;;31.50;41.50;29.40;100141;;;;573101;246;23128;-83
2022/09/30 10:26:26;;;;;;;5.03;1.80;;;31.10;41.30;28.70;100141;;;;574793;243;23131;-82
2022/09/30 10:28:56;;;;;;;1.73;1.62;;;30.50;41.80;27.60;100136;;;;582178;246;23156;-82
2022/09/30 10:31:37;;;;;;;2.70;1.70;;;28.30;44.30;26.50;100135;;;;562439;251;23106;-83
2022/09/30 10:34:36;;;;;;;1.50;1.40;;;28.20;44.20;25.90;100131;;;;573004;246;23181;-82
2022/09/30 10:37:07;;;;;;;1.93;1.83;;;27.30;45.50;25.30;100126;;;;573234;246;23106;-82
2022/09/30 10:39:38;;;;;;;1.50;1.50;;;26.40;47.70;24.70;100135;;;;560949;250;24139;-82
2022/09/30 10:42:21;;;;;;;1.67;1.57;;;25.70;48.70;24.00;100133;;;;574788;249;24098;-82
2022/09/30 10:44:54;;;;;;;1.60;1.60;;;24.90;49.30;23.20;100128;;;;572883;246;23111;-82
2022/09/30 10:47:23;;;;;;;4.20;1.73;;;24.10;50.50;22.40;100128;;;;562036;251;24179;-81
2022/09/30 10:49:56;;;;;;;2.10;1.53;;;23.30;50.90;21.80;100128;;;;572329;246;24147;-82
2022/09/30 10:52:23;;;;;;;1.23;1.23;;;22.60;52.70;21.30;100135;;;;571795;246;23104;-82
2022/09/30 10:54:57;;;;;;;1.50;1.40;;;21.90;53.70;21.10;100133;;;;570926;250;24122;-82
2022/09/30 10:57:31;;;;;;;1.33;1.23;;;21.60;54.90;21.00;100120;;;;562023;251;24184;-81
2022/09/30 11:00:05;;;;;;;1.63;1.53;;;21.40;55.70;20.80;100125;;;;575513;249;23129;-82
2022/09/30 11:02:51;;;;;;;1.43;1.10;;;21.20;56.60;20.80;100119;;;;569035;251;24206;-82
2022/09/30 11:05:22;;;;;;;1.83;1.00;;;21.20;56.70;20.50;100126;;;;560406;248;24117;-82
2022/09/30 11:08:02;;;;;;;1.00;1.00;;;20.70;56.40;20.20;100110;;;;565222;250;23108;-82
2022/09/30 11:10:39;;;;;;;1.20;1.10;;;20.70;56.40;19.80;100118;;;;572095;246;24119;-83
2022/09/30 11:13:37;;;;;;;1.70;1.10;;;20.40;56.90;19.40;100116;;;;561162;251;24084;-82
2022/09/30 11:16:08;;;;;;;1.10;1.10;;;20.00;58.00;19.10;100115;;;;572405;246;24082;-82
2022/09/30 11:19:04;;;;;;;1.50;0.90;;;19.30;59.70;18.90;100115;;;;571953;246;24163;-82
2022/09/30 11:21:36;;;;;;;1.47;1.37;;;19.30;59.70;18.70;100116;;;;571937;246;24137;-82
2022/09/30 11:24:00;;;;;;;1.30;1.30;;;19.00;61.50;18.60;100116;;;;563542;250;24109;-81
2022/09/30 11:26:32;;;;;;;4.83;4.43;;;19.00;63.10;18.60;100117;;;;571857;246;24092;-81
2022/09/30 11:29:24;;;;;;;7.83;1.93;;;18.90;63.00;18.70;100122;;;;569529;251;24131;-81
2022/09/30 11:32:01;;;;;;;1.53;1.43;;;19.20;64.60;18.80;100112;;;;573082;246;24098;-82
2022/09/30 11:34:44;;;;;;;2.70;2.50;;;19.10;63.70;18.90;100119;;;;582323;246;24085;-82
2022/09/30 11:37:29;;;;;;;2.10;2.00;;;19.30;65.00;18.90;100128;;;;563342;251;24157;-82
2022/09/30 11:40:36;;;;;;;5.80;2.70;;;19.30;65.60;18.90;100126;;;;575704;249;24172;-82
2022/09/30 11:43:07;;;;;;;3.93;2.20;;;19.30;66.70;18.90;100122;;;;565792;249;24160;-82
2022/09/30 11:46:15;;;;;;;5.10;2.33;;;19.40;66.40;19.00;100129;;;;572571;246;24122;-82